createdAt,value
2017-11-14T00:01:50.359Z,2.60
2017-11-14T00:04:17.158Z,2.60
2017-11-14T00:06:43.915Z,2.60
2017-11-14T00:09:11.657Z,2.60
2017-11-14T00:11:38.467Z,2.60
2017-11-14T00:14:05.315Z,2.60
2017-11-14T00:16:32.922Z,2.40
2017-11-14T00:18:59.642Z,2.40
2017-11-14T00:21:26.526Z,2.40
2017-11-14T00:23:53.758Z,2.40
2017-11-14T00:26:20.706Z,2.40
2017-11-14T00:28:47.532Z,2.50
2017-11-14T00:31:14.406Z,2.60
2017-11-14T00:33:41.215Z,2.70
2017-11-14T00:36:08.024Z,2.70
2017-11-14T00:38:35.334Z,2.80
2017-11-14T00:41:02.100Z,3.00
2017-11-14T00:43:29.726Z,3.10
2017-11-14T00:45:56.882Z,3.20
2017-11-14T00:48:23.725Z,3.40
2017-11-14T00:50:52.036Z,3.40
2017-11-14T00:53:18.960Z,3.50
2017-11-14T00:55:46.594Z,3.50
2017-11-14T00:58:13.459Z,3.50
2017-11-14T01:00:40.722Z,3.50
2017-11-14T01:03:07.417Z,3.50
2017-11-14T01:05:34.189Z,3.60
2017-11-14T01:08:01.142Z,3.60
2017-11-14T01:10:27.973Z,3.70
2017-11-14T01:12:54.868Z,3.80
2017-11-14T01:15:21.742Z,3.90
2017-11-14T01:17:48.437Z,3.90
2017-11-14T01:20:15.119Z,3.90
2017-11-14T01:22:41.829Z,3.90
2017-11-14T01:25:08.827Z,3.90
2017-11-14T01:27:35.770Z,3.90
2017-11-14T01:30:02.913Z,3.80
2017-11-14T01:32:29.816Z,3.80
2017-11-14T01:34:56.760Z,3.70
2017-11-14T01:37:24.181Z,3.60
2017-11-14T01:39:51.091Z,3.70
2017-11-14T01:42:18.037Z,3.70
2017-11-14T01:44:44.933Z,3.60
2017-11-14T01:47:11.712Z,3.60
2017-11-14T01:49:38.562Z,3.50
2017-11-14T01:52:05.371Z,3.50
2017-11-14T01:54:32.222Z,3.30
2017-11-14T01:56:59.063Z,3.30
2017-11-14T01:59:25.984Z,3.30
2017-11-14T02:01:52.688Z,3.30
2017-11-14T02:04:19.518Z,3.40
2017-11-14T02:06:46.799Z,3.50
2017-11-14T02:09:13.717Z,3.60
2017-11-14T02:11:41.213Z,3.60
2017-11-14T02:14:08.473Z,3.60
2017-11-14T02:16:35.589Z,3.60
2017-11-14T02:19:02.587Z,3.60
2017-11-14T02:21:29.315Z,3.60
2017-11-14T02:23:56.067Z,3.70
2017-11-14T02:26:22.910Z,3.70
2017-11-14T02:28:49.761Z,3.60
2017-11-14T02:31:17.304Z,3.60
2017-11-14T02:33:44.033Z,3.50
2017-11-14T02:36:10.939Z,3.60
2017-11-14T02:38:37.931Z,3.60
2017-11-14T02:41:04.781Z,3.50
2017-11-14T02:43:32.647Z,3.60
2017-11-14T02:45:59.607Z,3.60
2017-11-14T02:48:26.637Z,3.60
2017-11-14T02:50:53.874Z,3.50
2017-11-14T02:53:20.882Z,3.50
2017-11-14T02:55:47.684Z,3.50
2017-11-14T02:58:14.701Z,3.40
2017-11-14T03:00:41.573Z,3.40
2017-11-14T03:03:09.026Z,3.40
2017-11-14T03:05:36.051Z,3.40
2017-11-14T03:08:02.952Z,3.40
2017-11-14T03:10:30.586Z,3.30
2017-11-14T03:12:57.504Z,3.20
2017-11-14T03:15:24.352Z,3.10
2017-11-14T03:17:51.202Z,3.00
2017-11-14T03:20:17.951Z,3.00
2017-11-14T03:22:44.734Z,2.90
2017-11-14T03:25:11.632Z,2.80
2017-11-14T03:27:38.972Z,2.80
2017-11-14T03:30:05.883Z,2.80
2017-11-14T03:32:32.755Z,2.80
2017-11-14T03:35:00.344Z,2.60
2017-11-14T03:37:27.855Z,2.60
2017-11-14T03:39:55.773Z,2.60
2017-11-14T03:42:22.558Z,2.60
2017-11-14T03:44:49.312Z,2.70
2017-11-14T03:49:50.684Z,2.80
2017-11-14T03:52:18.336Z,2.80
2017-11-14T03:54:45.116Z,2.80
2017-11-14T03:57:12.235Z,2.90
2017-11-14T03:59:39.055Z,3.00
2017-11-14T04:02:05.868Z,3.00
2017-11-14T04:04:33.573Z,3.00
2017-11-14T04:07:00.512Z,2.90
2017-11-14T04:09:27.452Z,3.00
2017-11-14T04:11:54.472Z,2.90
2017-11-14T04:14:21.237Z,3.00
2017-11-14T04:16:48.104Z,3.00
2017-11-14T04:19:15.300Z,2.90
2017-11-14T04:21:42.174Z,2.90
2017-11-14T04:24:08.828Z,2.90
2017-11-14T04:26:35.527Z,2.80
2017-11-14T04:29:02.314Z,2.80
2017-11-14T04:31:29.188Z,2.70
2017-11-14T04:33:55.847Z,2.70
2017-11-14T04:36:22.599Z,2.60
2017-11-14T04:38:49.500Z,2.60
2017-11-14T04:41:16.779Z,2.60
2017-11-14T04:43:43.630Z,2.50
2017-11-14T04:46:10.496Z,2.50
2017-11-14T04:48:37.353Z,2.50
2017-11-14T04:51:05.269Z,2.50
2017-11-14T04:53:32.033Z,2.50
2017-11-14T04:55:58.980Z,2.40
2017-11-14T04:58:27.266Z,2.40
2017-11-14T05:00:53.892Z,2.40
2017-11-14T05:03:20.752Z,2.40
2017-11-14T05:05:47.661Z,2.30
2017-11-14T05:08:14.368Z,2.30
2017-11-14T05:10:41.567Z,2.40
2017-11-14T05:13:08.432Z,2.30
2017-11-14T05:15:35.284Z,2.30
2017-11-14T05:18:02.425Z,2.30
2017-11-14T05:20:29.249Z,2.30
2017-11-14T05:22:56.053Z,2.30
2017-11-14T05:25:23.549Z,2.40
2017-11-14T05:27:50.314Z,2.40
2017-11-14T05:30:17.128Z,2.40
2017-11-14T05:32:44.084Z,2.50
2017-11-14T05:35:11.082Z,2.40
2017-11-14T05:37:38.005Z,2.40
2017-11-14T05:40:05.599Z,2.40
2017-11-14T05:42:33.128Z,2.40
2017-11-14T05:45:00.361Z,2.40
2017-11-14T05:47:28.670Z,2.40
2017-11-14T05:49:57.512Z,2.40
2017-11-14T05:52:28.475Z,2.50
2017-11-14T05:54:55.903Z,2.60
2017-11-14T05:57:22.774Z,2.70
2017-11-14T05:59:49.583Z,2.70
2017-11-14T06:02:16.654Z,2.70
2017-11-14T06:04:43.403Z,2.80
2017-11-14T06:07:10.113Z,2.70
2017-11-14T06:09:36.879Z,2.70
2017-11-14T06:12:03.680Z,2.70
2017-11-14T06:14:30.525Z,2.70
2017-11-14T06:16:57.244Z,2.70
2017-11-14T06:19:24.343Z,2.60
2017-11-14T06:21:51.861Z,2.70
2017-11-14T06:24:18.975Z,2.60
2017-11-14T06:26:45.713Z,2.60
2017-11-14T06:29:12.537Z,2.60
2017-11-14T06:31:40.415Z,2.60
2017-11-14T06:34:08.849Z,2.60
2017-11-14T06:36:35.678Z,2.60
2017-11-14T06:39:02.721Z,2.70
2017-11-14T06:41:30.387Z,2.70
2017-11-14T06:43:58.463Z,2.60
2017-11-14T06:46:25.698Z,2.60
2017-11-14T06:48:53.294Z,2.30
2017-11-14T06:51:20.181Z,2.30
2017-11-14T06:53:47.043Z,2.20
2017-11-14T06:56:15.339Z,2.10
2017-11-14T06:58:42.306Z,2.00
2017-11-14T07:01:09.263Z,1.90
2017-11-14T07:03:36.096Z,1.90
2017-11-14T07:06:02.952Z,2.00
2017-11-14T07:08:29.975Z,2.00
2017-11-14T07:10:56.731Z,2.10
2017-11-14T07:13:23.644Z,2.20
2017-11-14T07:15:50.708Z,2.20
2017-11-14T07:18:18.133Z,2.30
2017-11-14T07:20:45.262Z,2.30
2017-11-14T07:23:12.011Z,2.40
2017-11-14T07:25:38.705Z,2.40
2017-11-14T07:28:05.443Z,2.40
2017-11-14T07:30:32.348Z,2.50
2017-11-14T07:32:59.093Z,2.60
2017-11-14T07:35:25.936Z,2.70
2017-11-14T07:37:53.049Z,2.70
2017-11-14T07:40:20.781Z,2.80
2017-11-14T07:42:47.778Z,2.70
2017-11-14T07:45:17.763Z,2.90
2017-11-14T07:47:44.644Z,2.80
2017-11-14T07:50:11.586Z,2.90
2017-11-14T07:52:38.636Z,2.90
2017-11-14T07:55:05.813Z,2.90
2017-11-14T07:57:33.570Z,2.90
2017-11-14T08:00:01.261Z,2.90
2017-11-14T08:02:28.137Z,2.90
2017-11-14T08:04:55.449Z,2.90
2017-11-14T08:07:22.570Z,2.90
2017-11-14T08:09:49.590Z,2.90
2017-11-14T08:12:16.587Z,2.90
2017-11-14T08:14:44.383Z,3.00
2017-11-14T08:17:11.280Z,2.90
2017-11-14T08:19:38.068Z,2.90
2017-11-14T08:22:05.108Z,2.90
2017-11-14T08:24:31.835Z,3.00
2017-11-14T08:26:58.631Z,3.00
2017-11-14T08:29:26.329Z,3.00
2017-11-14T08:31:53.207Z,2.90
2017-11-14T08:34:20.092Z,3.00
2017-11-14T08:36:48.124Z,3.10
2017-11-14T08:39:15.230Z,3.10
2017-11-14T08:41:42.351Z,3.00
2017-11-14T08:44:09.289Z,3.20
2017-11-14T08:46:38.567Z,3.20
2017-11-14T08:49:05.379Z,3.40
2017-11-14T08:51:33.641Z,3.40
2017-11-14T08:54:01.165Z,3.50
2017-11-14T08:56:28.216Z,3.60
2017-11-14T08:58:55.388Z,3.70
2017-11-14T09:01:22.521Z,3.80
2017-11-14T09:03:49.752Z,3.90
2017-11-14T09:06:17.605Z,4.00
2017-11-14T09:08:44.387Z,4.00
2017-11-14T09:11:11.349Z,4.10
2017-11-14T09:13:38.333Z,4.20
2017-11-14T09:16:05.233Z,4.30
2017-11-14T09:18:32.169Z,4.30
2017-11-14T09:20:59.431Z,4.50
2017-11-14T09:23:26.854Z,4.50
2017-11-14T09:25:54.518Z,4.50
2017-11-14T09:28:24.005Z,4.50
2017-11-14T09:30:51.277Z,4.50
2017-11-14T09:33:18.501Z,4.60
2017-11-14T09:35:46.504Z,4.60
2017-11-14T09:38:14.158Z,4.60
2017-11-14T09:40:41.258Z,4.60
2017-11-14T09:43:09.319Z,4.60
2017-11-14T09:45:36.922Z,4.80
2017-11-14T09:48:04.099Z,4.80
2017-11-14T09:50:30.937Z,4.90
2017-11-14T09:52:58.005Z,4.90
2017-11-14T09:55:24.842Z,5.00
2017-11-14T09:57:51.685Z,5.00
2017-11-14T10:00:19.454Z,5.10
2017-11-14T10:02:46.636Z,5.00
2017-11-14T10:05:13.710Z,5.10
2017-11-14T10:07:41.448Z,5.20
2017-11-14T10:10:08.452Z,5.10
2017-11-14T10:12:35.865Z,5.20
2017-11-14T10:15:02.971Z,5.20
2017-11-14T10:17:30.792Z,5.30
2017-11-14T10:19:57.911Z,5.30
2017-11-14T10:22:24.813Z,5.40
2017-11-14T10:24:51.823Z,5.30
2017-11-14T10:27:21.466Z,5.20
2017-11-14T10:29:48.637Z,5.10
2017-11-14T10:32:15.582Z,5.00
2017-11-14T10:34:42.607Z,5.00
2017-11-14T10:37:09.387Z,4.90
2017-11-14T10:39:39.239Z,4.90
2017-11-14T10:42:06.588Z,5.00
2017-11-14T10:44:34.700Z,5.00
2017-11-14T10:47:02.391Z,5.10
2017-11-14T10:49:30.479Z,5.00
2017-11-14T10:51:57.307Z,5.10
2017-11-14T10:54:24.142Z,5.10
2017-11-14T10:56:51.843Z,5.10
2017-11-14T10:59:18.779Z,5.00
2017-11-14T11:01:45.547Z,5.10
2017-11-14T11:04:12.492Z,5.00
2017-11-14T11:06:39.339Z,5.10
2017-11-14T11:09:06.161Z,5.20
2017-11-14T11:11:33.047Z,5.20
2017-11-14T11:13:59.853Z,5.20
2017-11-14T11:16:31.713Z,5.20
2017-11-14T11:18:58.562Z,5.20
2017-11-14T11:21:25.337Z,5.10
2017-11-14T11:23:52.222Z,5.10
2017-11-14T11:26:19.241Z,5.00
2017-11-14T11:28:46.743Z,5.10
2017-11-14T11:31:13.858Z,5.10
2017-11-14T11:33:41.087Z,5.20
2017-11-14T11:36:07.976Z,5.20
2017-11-14T11:38:34.877Z,5.20
2017-11-14T11:41:02.001Z,5.30
2017-11-14T11:43:28.833Z,5.30
2017-11-14T11:45:55.669Z,5.40
2017-11-14T11:48:22.768Z,5.40
2017-11-14T11:50:49.888Z,5.40
2017-11-14T11:53:17.007Z,5.40
2017-11-14T11:55:43.891Z,5.40
2017-11-14T11:58:11.595Z,5.40
2017-11-14T12:00:38.463Z,5.40
2017-11-14T12:03:05.615Z,5.40
2017-11-14T12:05:35.277Z,5.40
2017-11-14T12:08:03.548Z,5.50
2017-11-14T12:10:30.383Z,5.50
2017-11-14T12:12:57.141Z,5.40
2017-11-14T12:15:23.978Z,5.40
2017-11-14T12:17:51.670Z,5.40
2017-11-14T12:20:19.345Z,5.30
2017-11-14T12:22:46.111Z,5.30
2017-11-14T12:25:13.052Z,5.30
2017-11-14T12:27:39.991Z,5.30
2017-11-14T12:30:06.773Z,5.20
2017-11-14T12:32:34.054Z,5.20
2017-11-14T12:35:01.056Z,5.20
2017-11-14T12:37:27.903Z,5.10
2017-11-14T12:39:54.778Z,5.20
2017-11-14T12:42:21.492Z,5.20
2017-11-14T12:44:48.432Z,5.30
2017-11-14T12:47:15.283Z,5.20
2017-11-14T12:49:42.022Z,5.20
2017-11-14T12:52:09.615Z,5.10
2017-11-14T12:54:36.574Z,5.20
2017-11-14T12:57:04.031Z,5.20
2017-11-14T12:59:30.666Z,5.20
2017-11-14T13:01:57.528Z,5.30
2017-11-14T13:04:24.388Z,5.30
2017-11-14T13:06:51.541Z,5.30
2017-11-14T13:09:18.517Z,5.30
2017-11-14T13:11:45.199Z,5.30
2017-11-14T13:14:12.035Z,5.30
2017-11-14T13:16:38.876Z,5.30
2017-11-14T13:19:05.600Z,5.30
2017-11-14T13:21:32.584Z,5.30
2017-11-14T13:24:00.028Z,5.30
2017-11-14T13:26:26.888Z,5.30
2017-11-14T13:28:53.701Z,5.30
2017-11-14T13:31:20.659Z,5.30
2017-11-14T13:33:47.340Z,5.30
2017-11-14T13:36:14.194Z,5.40
2017-11-14T13:38:42.444Z,5.50
2017-11-14T13:41:09.231Z,5.40
2017-11-14T13:43:36.079Z,5.50
2017-11-14T13:46:03.668Z,5.40
2017-11-14T13:48:30.430Z,5.40
2017-11-14T13:50:57.460Z,5.50
2017-11-14T13:53:24.632Z,5.50
2017-11-14T13:55:51.509Z,5.50
2017-11-14T13:58:18.256Z,5.50
2017-11-14T14:00:45.093Z,5.60
2017-11-14T14:03:12.018Z,5.60
2017-11-14T14:05:38.879Z,5.60
2017-11-14T14:08:06.080Z,5.60
2017-11-14T14:10:32.804Z,5.70
2017-11-14T14:13:00.418Z,5.70
2017-11-14T14:15:27.405Z,5.70
2017-11-14T14:17:54.190Z,5.70
2017-11-14T14:20:20.963Z,5.80
2017-11-14T14:22:48.103Z,5.80
2017-11-14T14:25:15.056Z,5.90
2017-11-14T14:27:42.184Z,5.90
2017-11-14T14:30:09.418Z,6.00
2017-11-14T14:32:36.334Z,6.00
2017-11-14T14:35:03.316Z,6.00
2017-11-14T14:37:30.481Z,6.00
2017-11-14T14:39:57.438Z,6.00
2017-11-14T14:42:24.392Z,6.10
2017-11-14T14:44:52.852Z,6.10
2017-11-14T14:47:19.770Z,6.10
2017-11-14T14:49:47.750Z,6.20
2017-11-14T14:52:14.997Z,6.10
2017-11-14T14:54:41.871Z,6.20
2017-11-14T14:57:08.592Z,6.20
2017-11-14T14:59:36.268Z,6.30
2017-11-14T15:02:03.158Z,6.20
2017-11-14T15:04:29.977Z,6.30
2017-11-14T15:06:56.732Z,6.40
2017-11-14T15:09:24.409Z,6.20
2017-11-14T15:11:52.603Z,6.20
2017-11-14T15:14:19.917Z,6.20
2017-11-14T15:16:47.507Z,6.10
2017-11-14T15:19:15.482Z,6.10
2017-11-14T15:21:43.508Z,6.00
2017-11-14T15:24:10.474Z,6.00
2017-11-14T15:26:37.572Z,6.00
2017-11-14T15:29:04.638Z,6.00
2017-11-14T15:31:31.516Z,6.00
2017-11-14T15:33:58.665Z,6.00
2017-11-14T15:36:26.242Z,6.00
2017-11-14T15:38:53.374Z,6.10
2017-11-14T15:41:20.173Z,6.10
2017-11-14T15:43:47.002Z,6.20
2017-11-14T15:46:14.002Z,6.20
2017-11-14T15:48:40.827Z,6.30
2017-11-14T15:51:08.072Z,6.30
2017-11-14T15:53:34.834Z,6.30
2017-11-14T15:56:02.338Z,6.30
2017-11-14T15:58:29.893Z,6.30
2017-11-14T16:00:56.896Z,6.30
2017-11-14T16:03:23.716Z,6.40
2017-11-14T16:05:50.484Z,6.40
2017-11-14T16:08:17.631Z,6.40
2017-11-14T16:10:44.521Z,6.40
2017-11-14T16:13:11.345Z,6.40
2017-11-14T16:15:38.524Z,6.50
2017-11-14T16:18:05.717Z,6.50
2017-11-14T16:20:37.137Z,6.50
2017-11-14T16:23:03.870Z,6.50
2017-11-14T16:25:30.624Z,6.60
2017-11-14T16:27:58.182Z,6.60
2017-11-14T16:30:25.185Z,6.60
2017-11-14T16:32:52.193Z,6.60
2017-11-14T16:35:19.040Z,6.60
2017-11-14T16:37:45.722Z,6.70
2017-11-14T16:40:12.791Z,6.70
2017-11-14T16:42:39.823Z,6.70
2017-11-14T16:45:06.777Z,6.70
2017-11-14T16:47:33.703Z,6.80
2017-11-14T16:50:00.928Z,6.80
2017-11-14T16:52:28.684Z,6.80
2017-11-14T16:54:56.266Z,6.80
2017-11-14T16:57:23.425Z,6.80
2017-11-14T16:59:51.052Z,6.80
2017-11-14T17:02:17.771Z,6.70
2017-11-14T17:04:45.328Z,6.80
2017-11-14T17:07:12.340Z,6.90
2017-11-14T17:09:39.211Z,6.80
2017-11-14T17:12:05.984Z,6.90
2017-11-14T17:14:32.786Z,6.90
2017-11-14T17:16:59.623Z,6.90
2017-11-14T17:19:28.023Z,6.90
2017-11-14T17:21:54.880Z,6.80
2017-11-14T17:24:21.757Z,6.80
2017-11-14T17:26:58.806Z,6.80
2017-11-14T17:29:28.319Z,6.90
2017-11-14T17:31:55.151Z,6.90
2017-11-14T17:34:21.907Z,6.90
2017-11-14T17:36:49.900Z,7.10
2017-11-14T17:39:16.815Z,7.00
2017-11-14T17:41:43.981Z,7.10
2017-11-14T17:44:11.627Z,7.10
2017-11-14T17:46:38.664Z,7.10
2017-11-14T17:49:05.630Z,7.10
2017-11-14T17:51:32.467Z,7.20
2017-11-14T17:53:59.378Z,7.20
2017-11-14T17:56:26.419Z,7.20
2017-11-14T17:58:54.422Z,7.30
2017-11-14T18:01:22.891Z,7.30
2017-11-14T18:03:50.171Z,7.30
2017-11-14T18:06:17.676Z,7.30
2017-11-14T18:08:45.750Z,7.30
2017-11-14T18:11:14.720Z,7.40
2017-11-14T18:13:42.009Z,7.30
2017-11-14T18:16:12.862Z,7.40
2017-11-14T18:18:39.799Z,7.40
2017-11-14T18:21:06.632Z,7.40
2017-11-14T18:23:33.659Z,7.40
2017-11-14T18:26:00.803Z,7.40
2017-11-14T18:28:27.618Z,7.40
2017-11-14T18:30:54.388Z,7.40
2017-11-14T18:33:21.084Z,7.40
2017-11-14T18:35:47.927Z,7.40
2017-11-14T18:38:15.558Z,7.40
2017-11-14T18:40:43.110Z,7.50
2017-11-14T18:43:09.834Z,7.40
2017-11-14T18:45:36.656Z,7.50
2017-11-14T18:48:06.635Z,7.50
2017-11-14T18:50:33.563Z,7.50
2017-11-14T18:53:00.320Z,7.50
2017-11-14T18:55:27.051Z,7.50
2017-11-14T18:57:53.849Z,7.50
2017-11-14T19:00:21.420Z,7.50
2017-11-14T19:02:48.353Z,7.50
2017-11-14T19:05:15.324Z,7.50
2017-11-14T19:07:43.161Z,7.50
2017-11-14T19:10:12.485Z,7.50
2017-11-14T19:12:39.346Z,7.50
2017-11-14T19:15:06.200Z,7.50
2017-11-14T19:17:33.851Z,7.50
2017-11-14T19:20:01.576Z,7.40
2017-11-14T19:22:29.801Z,7.40
2017-11-14T19:24:57.310Z,7.40
2017-11-14T19:27:24.495Z,7.30
2017-11-14T19:29:57.253Z,7.30
2017-11-14T19:32:26.792Z,7.30
2017-11-14T19:34:53.788Z,7.30
2017-11-14T19:37:21.809Z,7.40
2017-11-14T19:39:49.450Z,7.40
2017-11-14T19:42:16.934Z,7.40
2017-11-14T19:44:44.468Z,7.40
2017-11-14T19:47:11.670Z,7.40
2017-11-14T19:49:38.689Z,7.30
2017-11-14T19:52:05.680Z,7.40
2017-11-14T19:54:32.679Z,7.30
2017-11-14T19:57:00.241Z,7.20
2017-11-14T19:59:28.612Z,7.20
2017-11-14T20:01:57.595Z,7.30
2017-11-14T20:04:24.491Z,7.30
2017-11-14T20:06:51.783Z,7.30
2017-11-14T20:09:18.755Z,7.30
2017-11-14T20:11:47.651Z,7.30
2017-11-14T20:14:14.864Z,7.20
2017-11-14T20:16:42.556Z,7.10
2017-11-14T20:19:09.500Z,7.10
2017-11-14T20:21:36.771Z,7.00
2017-11-14T20:24:05.016Z,7.10
2017-11-14T20:29:05.024Z,6.90
2017-11-14T20:31:32.183Z,6.90
2017-11-14T20:34:02.637Z,6.90
2017-11-14T20:36:32.599Z,6.90
2017-11-14T20:39:11.197Z,6.90
2017-11-14T20:41:41.654Z,6.90
2017-11-14T20:44:10.733Z,6.80
2017-11-14T20:46:39.687Z,6.90
2017-11-14T20:49:07.007Z,6.90
2017-11-14T20:51:34.544Z,6.80
2017-11-14T20:54:02.244Z,6.80
2017-11-14T20:56:30.615Z,6.70
2017-11-14T20:58:57.673Z,6.70
2017-11-14T21:01:26.545Z,6.70
2017-11-14T21:03:55.744Z,6.70
2017-11-14T21:06:24.947Z,6.70
2017-11-14T21:09:04.786Z,6.70
2017-11-14T21:11:31.706Z,6.70
2017-11-14T21:13:59.107Z,6.70
2017-11-14T21:16:27.852Z,6.70
2017-11-14T21:18:56.390Z,6.70
2017-11-14T21:21:26.160Z,6.70
2017-11-14T21:23:54.759Z,6.60
2017-11-14T21:26:23.218Z,6.60
2017-11-14T21:28:51.084Z,6.70
2017-11-14T21:31:18.232Z,6.60
2017-11-14T21:33:46.173Z,6.50
2017-11-14T21:36:14.416Z,6.50
2017-11-14T21:38:43.091Z,6.50
2017-11-14T21:41:11.389Z,6.50
2017-11-14T21:43:42.273Z,6.50
2017-11-14T21:46:12.005Z,6.50
2017-11-14T21:48:41.930Z,6.50
2017-11-14T21:51:09.461Z,6.50
2017-11-14T21:53:37.245Z,6.50
2017-11-14T21:56:07.876Z,6.40
2017-11-14T21:58:36.053Z,6.50
2017-11-14T22:01:02.743Z,6.50
2017-11-14T22:03:29.579Z,6.50
2017-11-14T22:05:57.686Z,6.40
2017-11-14T22:08:25.269Z,6.50
2017-11-14T22:10:52.424Z,6.50
2017-11-14T22:13:21.542Z,6.50
2017-11-14T22:15:48.576Z,6.40
2017-11-14T22:18:16.329Z,6.40
2017-11-14T22:20:43.376Z,6.40
2017-11-14T22:23:10.769Z,6.40
2017-11-14T22:25:39.388Z,6.40
2017-11-14T22:28:08.535Z,6.40
2017-11-14T22:30:38.227Z,6.40
2017-11-14T22:33:05.646Z,6.30
2017-11-14T22:35:34.948Z,6.40
2017-11-14T22:38:01.698Z,6.30
2017-11-14T22:40:28.540Z,6.40
2017-11-14T22:42:56.098Z,6.40
2017-11-14T22:45:23.015Z,6.40
2017-11-14T22:47:50.029Z,6.40
2017-11-14T22:50:18.622Z,6.50
2017-11-14T22:52:48.202Z,6.50
2017-11-14T22:55:14.976Z,6.40
2017-11-14T22:57:42.649Z,6.50
2017-11-14T23:00:10.587Z,6.40
2017-11-14T23:02:37.399Z,6.40
2017-11-14T23:05:05.221Z,6.30
2017-11-14T23:07:34.689Z,6.30
2017-11-14T23:10:02.992Z,6.30
2017-11-14T23:12:30.710Z,6.30
2017-11-14T23:14:58.552Z,6.40
2017-11-14T23:17:29.391Z,6.40
2017-11-14T23:20:00.333Z,6.50
2017-11-14T23:22:27.889Z,6.50
2017-11-14T23:24:56.207Z,6.50
2017-11-14T23:27:24.184Z,6.50
2017-11-14T23:29:50.975Z,6.50
2017-11-14T23:32:17.997Z,6.50
2017-11-14T23:34:49.820Z,6.50
2017-11-14T23:37:17.314Z,6.60
2017-11-14T23:39:44.472Z,6.60
2017-11-14T23:42:11.606Z,6.70
2017-11-14T23:44:38.482Z,6.70
2017-11-14T23:47:06.868Z,6.80
2017-11-14T23:49:37.498Z,6.90
2017-11-14T23:52:05.538Z,6.90
2017-11-14T23:54:32.837Z,6.90
2017-11-14T23:57:00.347Z,6.90
2017-11-14T23:59:28.657Z,6.90
